Helston, United Kingdom
Current Conditions -  °F | °C
As of 2:50 PM on Thursday 30 Oct 2014 (Local Time) from EGDR Reporting Station
Moderate Fog Moderate Fog  
Wind Chill: 59°   Ceiling: Unl
Heat Index: 59°   Visibility: 0.09mi
Dew Point: 57°   Wind: 12mph
Humidity: 94%   Direction: 180°S
Pressure: 29.97"   Gusts: NA
Location:  50.08°N, 5.2°W
Report Text: EGDR 301450Z 18010KT 0150 FG VV/// 15/14 Q1015 RED NOSIG
Loading
Personal Weather Stations






























Interactive Weather Map New forecast layout! Learn more

10-Day Weather Forecast

Advertisements
Track Severe Weather on mobile